sensor_id;sensor_type;location;lat;lon;timestamp;temperature;humidity
51783;DHT22;37845;53.196;5.638;2023-04-25T00:19:53;7.10;99.90
51783;DHT22;37845;53.196;5.638;2023-04-25T00:23:04;7.00;99.90
51783;DHT22;37845;53.196;5.638;2023-04-25T00:59:47;7.00;99.90
51783;DHT22;37845;53.196;5.638;2023-04-25T01:02:46;7.00;99.90
51783;DHT22;37845;53.196;5.638;2023-04-25T01:10:56;6.70;99.90
51783;DHT22;37845;53.196;5.638;2023-04-25T01:18:43;6.70;99.90
51783;DHT22;37845;53.196;5.638;2023-04-25T01:21:34;6.50;99.90
51783;DHT22;37845;53.196;5.638;2023-04-25T01:24:04;6.70;99.90
51783;DHT22;37845;53.196;5.638;2023-04-25T01:26:49;6.60;99.90
51783;DHT22;37845;53.196;5.638;2023-04-25T01:29:42;6.60;99.90
51783;DHT22;37845;53.196;5.638;2023-04-25T01:32:11;6.80;99.90
51783;DHT22;37845;53.196;5.638;2023-04-25T01:35:03;7.00;99.90
51783;DHT22;37845;53.196;5.638;2023-04-25T01:40:31;6.60;99.90
51783;DHT22;37845;53.196;5.638;2023-04-25T01:43:15;6.40;99.90
51783;DHT22;37845;53.196;5.638;2023-04-25T01:46:29;6.40;99.90
51783;DHT22;37845;53.196;5.638;2023-04-25T01:49:15;7.00;99.90
51783;DHT22;37845;53.196;5.638;2023-04-25T01:52:17;5.40;99.90
51783;DHT22;37845;53.196;5.638;2023-04-25T01:55:15;5.20;99.90
51783;DHT22;37845;53.196;5.638;2023-04-25T01:57:49;7.20;99.90
51783;DHT22;37845;53.196;5.638;2023-04-25T02:01:07;5.90;99.90
51783;DHT22;37845;53.196;5.638;2023-04-25T02:03:36;6.10;99.90
51783;DHT22;37845;53.196;5.638;2023-04-25T02:06:26;5.90;99.90
51783;DHT22;37845;53.196;5.638;2023-04-25T02:09:09;5.90;99.90
51783;DHT22;37845;53.196;5.638;2023-04-25T02:24:43;5.90;99.90
51783;DHT22;37845;53.196;5.638;2023-04-25T02:27:22;5.90;99.90
51783;DHT22;37845;53.196;5.638;2023-04-25T02:29:56;5.90;99.90
51783;DHT22;37845;53.196;5.638;2023-04-25T02:32:22;6.10;99.90
51783;DHT22;37845;53.196;5.638;2023-04-25T02:34:56;6.30;99.90
51783;DHT22;37845;53.196;5.638;2023-04-25T02:37:37;6.10;99.90
51783;DHT22;37845;53.196;5.638;2023-04-25T02:40:21;6.10;99.90
51783;DHT22;37845;53.196;5.638;2023-04-25T02:42:52;6.20;99.90
51783;DHT22;37845;53.196;5.638;2023-04-25T02:45:21;5.10;99.90
51783;DHT22;37845;53.196;5.638;2023-04-25T02:48:00;6.30;99.90
51783;DHT22;37845;53.196;5.638;2023-04-25T02:51:18;5.60;99.90
51783;DHT22;37845;53.196;5.638;2023-04-25T02:54:09;6.30;99.90
51783;DHT22;37845;53.196;5.638;2023-04-25T02:57:06;5.80;99.90
51783;DHT22;37845;53.196;5.638;2023-04-25T02:59:32;6.20;99.90
51783;DHT22;37845;53.196;5.638;2023-04-25T03:02:09;6.20;99.90
51783;DHT22;37845;53.196;5.638;2023-04-25T03:15:10;5.20;99.90
51783;DHT22;37845;53.196;5.638;2023-04-25T03:17:42;5.80;99.90
51783;DHT22;37845;53.196;5.638;2023-04-25T03:20:23;7.00;99.90
51783;DHT22;37845;53.196;5.638;2023-04-25T03:22:54;5.20;99.90
51783;DHT22;37845;53.196;5.638;2023-04-25T03:31:29;6.10;99.90
51783;DHT22;37845;53.196;5.638;2023-04-25T03:34:21;6.00;99.90
51783;DHT22;37845;53.196;5.638;2023-04-25T03:37:26;6.60;99.90
51783;DHT22;37845;53.196;5.638;2023-04-25T03:43:23;5.40;99.90
51783;DHT22;37845;53.196;5.638;2023-04-25T03:45:57;6.10;99.90
51783;DHT22;37845;53.196;5.638;2023-04-25T03:48:54;6.20;99.90
51783;DHT22;37845;53.196;5.638;2023-04-25T03:57:49;7.50;99.90
51783;DHT22;37845;53.196;5.638;2023-04-25T04:00:29;7.10;99.90
51783;DHT22;37845;53.196;5.638;2023-04-25T04:02:59;6.00;99.90
51783;DHT22;37845;53.196;5.638;2023-04-25T04:05:28;5.90;99.90
51783;DHT22;37845;53.196;5.638;2023-04-25T04:07:54;5.90;99.90
51783;DHT22;37845;53.196;5.638;2023-04-25T04:10:20;5.10;99.90
51783;DHT22;37845;53.196;5.638;2023-04-25T04:12:46;6.90;99.90
51783;DHT22;37845;53.196;5.638;2023-04-25T04:15:12;6.00;99.90
51783;DHT22;37845;53.196;5.638;2023-04-25T04:17:38;6.60;99.90
51783;DHT22;37845;53.196;5.638;2023-04-25T04:20:05;5.90;99.90
51783;DHT22;37845;53.196;5.638;2023-04-25T04:22:32;6.00;99.90
51783;DHT22;37845;53.196;5.638;2023-04-25T04:24:57;5.90;99.90
51783;DHT22;37845;53.196;5.638;2023-04-25T04:27:23;6.90;99.90
51783;DHT22;37845;53.196;5.638;2023-04-25T04:29:51;5.80;99.90
51783;DHT22;37845;53.196;5.638;2023-04-25T04:32:24;5.80;99.90
51783;DHT22;37845;53.196;5.638;2023-04-25T04:34:50;7.30;99.90
51783;DHT22;37845;53.196;5.638;2023-04-25T04:37:20;5.80;99.90
51783;DHT22;37845;53.196;5.638;2023-04-25T04:39:47;5.80;99.90
51783;DHT22;37845;53.196;5.638;2023-04-25T04:42:13;6.60;99.90
51783;DHT22;37845;53.196;5.638;2023-04-25T04:44:42;4.60;99.90
51783;DHT22;37845;53.196;5.638;2023-04-25T04:47:10;5.80;99.90
51783;DHT22;37845;53.196;5.638;2023-04-25T04:49:36;5.70;99.90
51783;DHT22;37845;53.196;5.638;2023-04-25T04:52:02;5.90;99.90
51783;DHT22;37845;53.196;5.638;2023-04-25T04:54:28;6.00;99.90
51783;DHT22;37845;53.196;5.638;2023-04-25T04:56:53;6.80;99.90
51783;DHT22;37845;53.196;5.638;2023-04-25T04:59:22;5.80;99.90
51783;DHT22;37845;53.196;5.638;2023-04-25T05:01:48;5.90;99.90
51783;DHT22;37845;53.196;5.638;2023-04-25T05:04:16;5.80;99.90
51783;DHT22;37845;53.196;5.638;2023-04-25T05:06:42;5.80;99.90
51783;DHT22;37845;53.196;5.638;2023-04-25T05:09:15;5.90;99.90
51783;DHT22;37845;53.196;5.638;2023-04-25T05:11:43;7.20;99.90
51783;DHT22;37845;53.196;5.638;2023-04-25T05:14:18;6.00;99.90
51783;DHT22;37845;53.196;5.638;2023-04-25T05:16:50;5.10;99.90
51783;DHT22;37845;53.196;5.638;2023-04-25T05:19:23;5.80;99.90
51783;DHT22;37845;53.196;5.638;2023-04-25T05:21:57;5.90;99.90
51783;DHT22;37845;53.196;5.638;2023-04-25T05:24:26;6.10;99.90
51783;DHT22;37845;53.196;5.638;2023-04-25T05:29:41;5.70;99.90
51783;DHT22;37845;53.196;5.638;2023-04-25T05:32:06;6.20;99.90
51783;DHT22;37845;53.196;5.638;2023-04-25T05:34:44;6.40;99.90
51783;DHT22;37845;53.196;5.638;2023-04-25T05:37:16;5.50;99.90
51783;DHT22;37845;53.196;5.638;2023-04-25T05:39:44;6.40;99.90
51783;DHT22;37845;53.196;5.638;2023-04-25T05:42:12;6.20;99.90
51783;DHT22;37845;53.196;5.638;2023-04-25T05:44:43;7.00;99.90
51783;DHT22;37845;53.196;5.638;2023-04-25T05:47:09;5.40;99.90
51783;DHT22;37845;53.196;5.638;2023-04-25T05:49:35;7.00;99.90
51783;DHT22;37845;53.196;5.638;2023-04-25T05:52:09;6.00;99.90
51783;DHT22;37845;53.196;5.638;2023-04-25T05:54:35;6.00;99.90
51783;DHT22;37845;53.196;5.638;2023-04-25T05:57:06;6.10;99.90
51783;DHT22;37845;53.196;5.638;2023-04-25T05:59:38;5.30;99.90
51783;DHT22;37845;53.196;5.638;2023-04-25T06:02:05;6.20;99.90
51783;DHT22;37845;53.196;5.638;2023-04-25T06:04:31;6.40;99.90
51783;DHT22;37845;53.196;5.638;2023-04-25T06:07:00;6.30;99.90
51783;DHT22;37845;53.196;5.638;2023-04-25T06:09:26;6.40;99.90
51783;DHT22;37845;53.196;5.638;2023-04-25T06:11:54;5.20;99.90
51783;DHT22;37845;53.196;5.638;2023-04-25T06:14:28;6.40;99.90
51783;DHT22;37845;53.196;5.638;2023-04-25T06:16:57;6.50;99.90
51783;DHT22;37845;53.196;5.638;2023-04-25T06:19:49;6.70;99.90
51783;DHT22;37845;53.196;5.638;2023-04-25T06:22:14;6.50;99.90
51783;DHT22;37845;53.196;5.638;2023-04-25T06:24:40;6.70;99.90
51783;DHT22;37845;53.196;5.638;2023-04-25T06:27:09;6.60;99.90
51783;DHT22;37845;53.196;5.638;2023-04-25T06:29:35;6.70;99.90
51783;DHT22;37845;53.196;5.638;2023-04-25T06:32:00;6.80;99.90
51783;DHT22;37845;53.196;5.638;2023-04-25T06:34:26;7.70;99.90
51783;DHT22;37845;53.196;5.638;2023-04-25T06:36:57;6.30;99.90
51783;DHT22;37845;53.196;5.638;2023-04-25T06:39:23;6.90;99.90
51783;DHT22;37845;53.196;5.638;2023-04-25T06:41:53;6.80;99.90
51783;DHT22;37845;53.196;5.638;2023-04-25T06:44:18;8.00;99.90
51783;DHT22;37845;53.196;5.638;2023-04-25T06:46:44;6.50;99.90
51783;DHT22;37845;53.196;5.638;2023-04-25T06:49:10;6.40;99.90
51783;DHT22;37845;53.196;5.638;2023-04-25T06:51:36;6.20;99.90
51783;DHT22;37845;53.196;5.638;2023-04-25T06:54:02;7.20;99.90
51783;DHT22;37845;53.196;5.638;2023-04-25T06:56:29;6.30;99.90
51783;DHT22;37845;53.196;5.638;2023-04-25T06:58:56;5.80;99.90
51783;DHT22;37845;53.196;5.638;2023-04-25T07:01:22;6.70;99.90
51783;DHT22;37845;53.196;5.638;2023-04-25T07:03:47;6.20;99.90
51783;DHT22;37845;53.196;5.638;2023-04-25T07:06:13;5.90;99.90
51783;DHT22;37845;53.196;5.638;2023-04-25T07:08:39;6.00;99.90
51783;DHT22;37845;53.196;5.638;2023-04-25T07:11:05;6.10;99.90
51783;DHT22;37845;53.196;5.638;2023-04-25T07:13:30;7.50;99.90
51783;DHT22;37845;53.196;5.638;2023-04-25T07:15:56;7.10;99.90
51783;DHT22;37845;53.196;5.638;2023-04-25T07:18:22;6.70;99.90
51783;DHT22;37845;53.196;5.638;2023-04-25T07:20:50;7.30;99.90
51783;DHT22;37845;53.196;5.638;2023-04-25T07:23:16;6.60;99.90
51783;DHT22;37845;53.196;5.638;2023-04-25T07:25:42;6.80;99.90
51783;DHT22;37845;53.196;5.638;2023-04-25T07:28:08;8.10;99.90
51783;DHT22;37845;53.196;5.638;2023-04-25T07:30:33;6.90;99.90
51783;DHT22;37845;53.196;5.638;2023-04-25T07:33:00;6.70;99.90
51783;DHT22;37845;53.196;5.638;2023-04-25T07:35:26;6.80;99.90
51783;DHT22;37845;53.196;5.638;2023-04-25T07:37:52;6.90;99.90
51783;DHT22;37845;53.196;5.638;2023-04-25T07:40:17;6.50;99.90
51783;DHT22;37845;53.196;5.638;2023-04-25T07:42:43;6.50;99.90
51783;DHT22;37845;53.196;5.638;2023-04-25T07:45:09;6.60;99.90
51783;DHT22;37845;53.196;5.638;2023-04-25T07:47:35;6.70;99.90
51783;DHT22;37845;53.196;5.638;2023-04-25T07:50:02;8.10;99.90
51783;DHT22;37845;53.196;5.638;2023-04-25T07:52:28;6.90;99.90
51783;DHT22;37845;53.196;5.638;2023-04-25T07:54:54;7.00;99.90
51783;DHT22;37845;53.196;5.638;2023-04-25T07:57:20;7.40;99.90
51783;DHT22;37845;53.196;5.638;2023-04-25T07:59:46;7.30;99.90
51783;DHT22;37845;53.196;5.638;2023-04-25T08:02:12;7.60;99.90
51783;DHT22;37845;53.196;5.638;2023-04-25T08:04:37;7.80;99.90
51783;DHT22;37845;53.196;5.638;2023-04-25T08:07:06;8.80;99.90
51783;DHT22;37845;53.196;5.638;2023-04-25T08:09:35;7.90;99.90
51783;DHT22;37845;53.196;5.638;2023-04-25T08:12:02;7.90;99.90
51783;DHT22;37845;53.196;5.638;2023-04-25T08:14:33;8.20;99.90
51783;DHT22;37845;53.196;5.638;2023-04-25T08:17:05;8.60;99.90
51783;DHT22;37845;53.196;5.638;2023-04-25T08:19:31;6.90;99.90
51783;DHT22;37845;53.196;5.638;2023-04-25T08:22:02;7.80;99.90
51783;DHT22;37845;53.196;5.638;2023-04-25T08:24:28;7.70;99.90
51783;DHT22;37845;53.196;5.638;2023-04-25T08:26:54;6.70;99.90
51783;DHT22;37845;53.196;5.638;2023-04-25T08:29:26;6.90;99.90
51783;DHT22;37845;53.196;5.638;2023-04-25T08:31:52;8.10;99.90
51783;DHT22;37845;53.196;5.638;2023-04-25T08:34:21;8.20;99.90
51783;DHT22;37845;53.196;5.638;2023-04-25T08:36:49;8.20;99.90
51783;DHT22;37845;53.196;5.638;2023-04-25T08:39:15;8.20;99.90
51783;DHT22;37845;53.196;5.638;2023-04-25T08:41:41;8.90;99.90
51783;DHT22;37845;53.196;5.638;2023-04-25T08:44:11;8.10;99.90
51783;DHT22;37845;53.196;5.638;2023-04-25T08:46:40;7.80;99.90
51783;DHT22;37845;53.196;5.638;2023-04-25T08:49:12;8.00;99.90
51783;DHT22;37845;53.196;5.638;2023-04-25T08:51:47;8.20;99.90
51783;DHT22;37845;53.196;5.638;2023-04-25T08:54:14;8.20;99.90
51783;DHT22;37845;53.196;5.638;2023-04-25T08:56:49;7.80;99.90
51783;DHT22;37845;53.196;5.638;2023-04-25T08:59:15;8.40;99.90
51783;DHT22;37845;53.196;5.638;2023-04-25T09:01:45;8.40;99.90
51783;DHT22;37845;53.196;5.638;2023-04-25T09:04:12;8.00;99.90
51783;DHT22;37845;53.196;5.638;2023-04-25T09:06:44;6.80;99.90
51783;DHT22;37845;53.196;5.638;2023-04-25T09:09:10;7.20;99.90
51783;DHT22;37845;53.196;5.638;2023-04-25T09:11:37;7.00;99.90
51783;DHT22;37845;53.196;5.638;2023-04-25T09:14:16;7.70;99.90
51783;DHT22;37845;53.196;5.638;2023-04-25T09:17:00;6.50;99.90
51783;DHT22;37845;53.196;5.638;2023-04-25T09:19:27;7.00;99.90
51783;DHT22;37845;53.196;5.638;2023-04-25T09:21:58;7.60;99.90
51783;DHT22;37845;53.196;5.638;2023-04-25T09:24:42;7.70;99.90
51783;DHT22;37845;53.196;5.638;2023-04-25T09:27:11;6.70;99.90
51783;DHT22;37845;53.196;5.638;2023-04-25T09:29:40;6.80;99.90
51783;DHT22;37845;53.196;5.638;2023-04-25T09:32:25;8.10;99.90
51783;DHT22;37845;53.196;5.638;2023-04-25T09:34:56;6.20;99.90
51783;DHT22;37845;53.196;5.638;2023-04-25T09:37:23;7.20;99.90
51783;DHT22;37845;53.196;5.638;2023-04-25T09:39:51;7.40;99.90
51783;DHT22;37845;53.196;5.638;2023-04-25T09:42:23;7.40;99.90
51783;DHT22;37845;53.196;5.638;2023-04-25T09:44:54;7.60;99.90
51783;DHT22;37845;53.196;5.638;2023-04-25T09:47:23;8.40;99.90
51783;DHT22;37845;53.196;5.638;2023-04-25T09:50:01;9.30;99.90
51783;DHT22;37845;53.196;5.638;2023-04-25T09:52:27;8.00;99.90
51783;DHT22;37845;53.196;5.638;2023-04-25T09:54:52;8.10;99.90
51783;DHT22;37845;53.196;5.638;2023-04-25T09:57:20;8.20;99.90
51783;DHT22;37845;53.196;5.638;2023-04-25T09:59:52;8.20;99.90
51783;DHT22;37845;53.196;5.638;2023-04-25T10:02:23;8.40;99.90
51783;DHT22;37845;53.196;5.638;2023-04-25T10:04:51;8.40;99.90
51783;DHT22;37845;53.196;5.638;2023-04-25T10:07:22;9.40;99.90
51783;DHT22;37845;53.196;5.638;2023-04-25T10:09:55;8.60;99.90
51783;DHT22;37845;53.196;5.638;2023-04-25T10:12:28;8.80;99.90
51783;DHT22;37845;53.196;5.638;2023-04-25T10:15:01;9.00;99.90
51783;DHT22;37845;53.196;5.638;2023-04-25T10:17:28;9.10;99.90
51783;DHT22;37845;53.196;5.638;2023-04-25T10:19:54;9.00;99.90
51783;DHT22;37845;53.196;5.638;2023-04-25T10:22:38;9.00;99.90
51783;DHT22;37845;53.196;5.638;2023-04-25T10:25:06;9.10;99.90
51783;DHT22;37845;53.196;5.638;2023-04-25T10:27:35;9.20;99.90
51783;DHT22;37845;53.196;5.638;2023-04-25T10:30:24;9.30;99.90
51783;DHT22;37845;53.196;5.638;2023-04-25T10:32:55;9.40;99.90
51783;DHT22;37845;53.196;5.638;2023-04-25T10:35:26;9.20;99.90
51783;DHT22;37845;53.196;5.638;2023-04-25T10:38:09;9.00;99.90
51783;DHT22;37845;53.196;5.638;2023-04-25T10:40:40;8.80;99.90
51783;DHT22;37845;53.196;5.638;2023-04-25T10:43:36;7.80;99.90
51783;DHT22;37845;53.196;5.638;2023-04-25T10:46:23;9.00;99.90
51783;DHT22;37845;53.196;5.638;2023-04-25T10:48:52;8.70;99.90
51783;DHT22;37845;53.196;5.638;2023-04-25T10:51:19;8.40;99.90
51783;DHT22;37845;53.196;5.638;2023-04-25T10:56:25;8.20;99.90
51783;DHT22;37845;53.196;5.638;2023-04-25T10:58:51;8.80;99.90
51783;DHT22;37845;53.196;5.638;2023-04-25T11:01:21;8.30;99.90
51783;DHT22;37845;53.196;5.638;2023-04-25T11:03:47;8.50;99.90
51783;DHT22;37845;53.196;5.638;2023-04-25T11:08:55;8.60;99.90
51783;DHT22;37845;53.196;5.638;2023-04-25T11:11:21;8.80;99.90
51783;DHT22;37845;53.196;5.638;2023-04-25T11:16:24;9.30;99.90
51783;DHT22;37845;53.196;5.638;2023-04-25T11:18:52;9.30;99.90
51783;DHT22;37845;53.196;5.638;2023-04-25T11:21:18;9.30;99.90
51783;DHT22;37845;53.196;5.638;2023-04-25T11:23:45;9.40;99.90
51783;DHT22;37845;53.196;5.638;2023-04-25T11:26:14;9.30;99.90
51783;DHT22;37845;53.196;5.638;2023-04-25T11:28:40;9.30;99.90
51783;DHT22;37845;53.196;5.638;2023-04-25T11:31:12;9.40;99.90
51783;DHT22;37845;53.196;5.638;2023-04-25T11:33:38;9.50;99.90
51783;DHT22;37845;53.196;5.638;2023-04-25T11:36:06;9.60;99.90
51783;DHT22;37845;53.196;5.638;2023-04-25T11:38:32;9.70;99.90
51783;DHT22;37845;53.196;5.638;2023-04-25T11:40:58;9.60;99.90
51783;DHT22;37845;53.196;5.638;2023-04-25T11:43:25;9.70;99.90
51783;DHT22;37845;53.196;5.638;2023-04-25T11:45:53;10.00;99.90
51783;DHT22;37845;53.196;5.638;2023-04-25T11:48:22;9.80;99.90
51783;DHT22;37845;53.196;5.638;2023-04-25T11:50:48;9.80;99.90
51783;DHT22;37845;53.196;5.638;2023-04-25T11:53:18;9.70;99.90
51783;DHT22;37845;53.196;5.638;2023-04-25T11:55:47;9.70;99.90
51783;DHT22;37845;53.196;5.638;2023-04-25T11:58:13;9.80;99.90
51783;DHT22;37845;53.196;5.638;2023-04-25T12:00:41;9.80;99.90
51783;DHT22;37845;53.196;5.638;2023-04-25T12:03:18;9.60;99.90
51783;DHT22;37845;53.196;5.638;2023-04-25T12:06:05;9.40;99.90
51783;DHT22;37845;53.196;5.638;2023-04-25T12:08:30;9.80;99.90
51783;DHT22;37845;53.196;5.638;2023-04-25T12:11:02;9.90;99.90
51783;DHT22;37845;53.196;5.638;2023-04-25T12:13:44;10.00;99.90
51783;DHT22;37845;53.196;5.638;2023-04-25T12:16:18;9.80;99.90
51783;DHT22;37845;53.196;5.638;2023-04-25T12:18:53;9.60;99.90
51783;DHT22;37845;53.196;5.638;2023-04-25T12:21:20;9.70;99.90
51783;DHT22;37845;53.196;5.638;2023-04-25T12:23:54;9.70;99.90
51783;DHT22;37845;53.196;5.638;2023-04-25T12:26:20;9.70;99.90
51783;DHT22;37845;53.196;5.638;2023-04-25T12:28:46;10.30;99.90
51783;DHT22;37845;53.196;5.638;2023-04-25T12:31:12;9.80;99.90
51783;DHT22;37845;53.196;5.638;2023-04-25T12:33:40;9.90;99.90
51783;DHT22;37845;53.196;5.638;2023-04-25T12:36:08;9.90;99.90
51783;DHT22;37845;53.196;5.638;2023-04-25T12:38:40;9.90;99.90
51783;DHT22;37845;53.196;5.638;2023-04-25T12:41:06;10.00;99.90
51783;DHT22;37845;53.196;5.638;2023-04-25T12:43:33;10.20;99.90
51783;DHT22;37845;53.196;5.638;2023-04-25T12:46:01;10.20;99.90
51783;DHT22;37845;53.196;5.638;2023-04-25T12:48:29;10.20;99.90
51783;DHT22;37845;53.196;5.638;2023-04-25T12:50:55;10.40;99.90
51783;DHT22;37845;53.196;5.638;2023-04-25T12:53:22;9.80;99.90
51783;DHT22;37845;53.196;5.638;2023-04-25T12:55:48;10.10;99.90
51783;DHT22;37845;53.196;5.638;2023-04-25T12:58:15;9.80;99.90
51783;DHT22;37845;53.196;5.638;2023-04-25T13:00:41;9.80;99.90
51783;DHT22;37845;53.196;5.638;2023-04-25T13:03:07;9.70;99.90
51783;DHT22;37845;53.196;5.638;2023-04-25T13:05:33;9.70;99.90
51783;DHT22;37845;53.196;5.638;2023-04-25T13:08:02;9.60;99.90
51783;DHT22;37845;53.196;5.638;2023-04-25T13:10:28;9.50;99.90
51783;DHT22;37845;53.196;5.638;2023-04-25T13:12:53;9.50;99.90
51783;DHT22;37845;53.196;5.638;2023-04-25T13:15:19;9.60;99.90
51783;DHT22;37845;53.196;5.638;2023-04-25T13:17:49;9.90;99.90
51783;DHT22;37845;53.196;5.638;2023-04-25T13:20:15;10.50;99.90
51783;DHT22;37845;53.196;5.638;2023-04-25T13:22:41;9.20;99.90
51783;DHT22;37845;53.196;5.638;2023-04-25T13:25:08;10.20;99.90
51783;DHT22;37845;53.196;5.638;2023-04-25T13:27:35;10.20;99.90
51783;DHT22;37845;53.196;5.638;2023-04-25T13:30:03;10.10;99.90
51783;DHT22;37845;53.196;5.638;2023-04-25T13:32:37;10.10;99.90
51783;DHT22;37845;53.196;5.638;2023-04-25T13:35:08;10.20;99.90
51783;DHT22;37845;53.196;5.638;2023-04-25T13:37:35;10.30;99.90
51783;DHT22;37845;53.196;5.638;2023-04-25T13:40:07;10.30;99.90
51783;DHT22;37845;53.196;5.638;2023-04-25T13:42:37;10.30;99.90
51783;DHT22;37845;53.196;5.638;2023-04-25T13:45:03;10.50;99.90
51783;DHT22;37845;53.196;5.638;2023-04-25T13:47:32;10.70;99.90
51783;DHT22;37845;53.196;5.638;2023-04-25T13:49:58;10.60;99.90
51783;DHT22;37845;53.196;5.638;2023-04-25T13:52:24;10.40;99.90
51783;DHT22;37845;53.196;5.638;2023-04-25T13:54:51;10.00;99.90
51783;DHT22;37845;53.196;5.638;2023-04-25T13:57:18;9.70;99.90
51783;DHT22;37845;53.196;5.638;2023-04-25T13:59:43;9.50;99.90
51783;DHT22;37845;53.196;5.638;2023-04-25T14:02:09;9.20;99.90
51783;DHT22;37845;53.196;5.638;2023-04-25T14:46:23;8.80;99.90
51783;DHT22;37845;53.196;5.638;2023-04-25T14:48:53;8.80;99.90
51783;DHT22;37845;53.196;5.638;2023-04-25T14:51:23;9.00;99.90
51783;DHT22;37845;53.196;5.638;2023-04-25T14:53:58;8.30;99.90
51783;DHT22;37845;53.196;5.638;2023-04-25T15:21:44;9.50;99.90
51783;DHT22;37845;53.196;5.638;2023-04-25T15:24:25;9.60;99.90
51783;DHT22;37845;53.196;5.638;2023-04-25T15:26:51;9.70;99.90
51783;DHT22;37845;53.196;5.638;2023-04-25T15:29:20;9.30;99.90
51783;DHT22;37845;53.196;5.638;2023-04-25T15:31:49;9.20;99.90
51783;DHT22;37845;53.196;5.638;2023-04-25T15:34:15;8.50;99.90
51783;DHT22;37845;53.196;5.638;2023-04-25T15:36:47;9.00;99.90
51783;DHT22;37845;53.196;5.638;2023-04-25T15:39:12;9.10;99.90
51783;DHT22;37845;53.196;5.638;2023-04-25T15:41:41;9.20;99.90
51783;DHT22;37845;53.196;5.638;2023-04-25T15:44:10;9.10;99.90
51783;DHT22;37845;53.196;5.638;2023-04-25T15:46:39;9.10;99.90
51783;DHT22;37845;53.196;5.638;2023-04-25T15:49:10;9.10;99.90
51783;DHT22;37845;53.196;5.638;2023-04-25T15:51:39;8.90;99.90
51783;DHT22;37845;53.196;5.638;2023-04-25T15:54:05;8.90;99.90
51783;DHT22;37845;53.196;5.638;2023-04-25T15:56:33;9.00;99.90
51783;DHT22;37845;53.196;5.638;2023-04-25T15:58:59;8.60;99.90
51783;DHT22;37845;53.196;5.638;2023-04-25T16:01:25;9.00;99.90
51783;DHT22;37845;53.196;5.638;2023-04-25T16:03:56;8.90;99.90
51783;DHT22;37845;53.196;5.638;2023-04-25T16:06:25;8.90;99.90
51783;DHT22;37845;53.196;5.638;2023-04-25T16:08:52;9.00;99.90
51783;DHT22;37845;53.196;5.638;2023-04-25T16:11:18;9.00;99.90
51783;DHT22;37845;53.196;5.638;2023-04-25T16:13:44;9.10;99.90
51783;DHT22;37845;53.196;5.638;2023-04-25T16:16:24;9.10;99.90
51783;DHT22;37845;53.196;5.638;2023-04-25T16:18:50;9.20;99.90
51783;DHT22;37845;53.196;5.638;2023-04-25T16:21:22;9.50;99.90
51783;DHT22;37845;53.196;5.638;2023-04-25T16:23:48;9.60;99.90
51783;DHT22;37845;53.196;5.638;2023-04-25T16:26:17;9.50;99.90
51783;DHT22;37845;53.196;5.638;2023-04-25T16:28:42;8.50;99.90
51783;DHT22;37845;53.196;5.638;2023-04-25T16:31:14;9.20;99.90
51783;DHT22;37845;53.196;5.638;2023-04-25T16:33:39;9.10;99.90
51783;DHT22;37845;53.196;5.638;2023-04-25T16:36:06;9.20;99.90
51783;DHT22;37845;53.196;5.638;2023-04-25T16:38:35;9.50;99.90
51783;DHT22;37845;53.196;5.638;2023-04-25T16:41:05;9.60;99.90
51783;DHT22;37845;53.196;5.638;2023-04-25T16:43:33;9.90;99.90
51783;DHT22;37845;53.196;5.638;2023-04-25T16:46:00;9.90;99.90
51783;DHT22;37845;53.196;5.638;2023-04-25T16:48:26;10.00;99.90
51783;DHT22;37845;53.196;5.638;2023-04-25T16:50:55;9.90;99.90
51783;DHT22;37845;53.196;5.638;2023-04-25T16:53:21;9.70;99.90
51783;DHT22;37845;53.196;5.638;2023-04-25T16:55:47;9.60;99.90
51783;DHT22;37845;53.196;5.638;2023-04-25T16:58:13;9.10;99.90
51783;DHT22;37845;53.196;5.638;2023-04-25T17:00:39;9.10;99.90
51783;DHT22;37845;53.196;5.638;2023-04-25T17:03:05;9.00;99.90
51783;DHT22;37845;53.196;5.638;2023-04-25T17:05:30;9.10;99.90
51783;DHT22;37845;53.196;5.638;2023-04-25T17:07:56;9.20;99.90
51783;DHT22;37845;53.196;5.638;2023-04-25T17:10:23;9.30;99.90
51783;DHT22;37845;53.196;5.638;2023-04-25T17:12:48;9.40;99.90
51783;DHT22;37845;53.196;5.638;2023-04-25T17:15:14;9.40;99.90
51783;DHT22;37845;53.196;5.638;2023-04-25T17:17:40;9.30;99.90
51783;DHT22;37845;53.196;5.638;2023-04-25T17:20:08;8.70;99.90
51783;DHT22;37845;53.196;5.638;2023-04-25T17:22:40;9.40;99.90
51783;DHT22;37845;53.196;5.638;2023-04-25T17:25:08;9.20;99.90
51783;DHT22;37845;53.196;5.638;2023-04-25T17:27:34;9.40;99.90
51783;DHT22;37845;53.196;5.638;2023-04-25T17:30:05;9.20;99.90
51783;DHT22;37845;53.196;5.638;2023-04-25T17:32:31;8.40;99.90
51783;DHT22;37845;53.196;5.638;2023-04-25T17:34:57;8.90;99.90
51783;DHT22;37845;53.196;5.638;2023-04-25T17:37:24;8.80;99.90
51783;DHT22;37845;53.196;5.638;2023-04-25T17:39:53;8.50;99.90
51783;DHT22;37845;53.196;5.638;2023-04-25T17:42:18;8.50;99.90
51783;DHT22;37845;53.196;5.638;2023-04-25T17:44:44;8.50;99.90
51783;DHT22;37845;53.196;5.638;2023-04-25T17:47:13;8.40;99.90
51783;DHT22;37845;53.196;5.638;2023-04-25T17:49:38;8.40;99.90
51783;DHT22;37845;53.196;5.638;2023-04-25T17:52:05;8.40;99.90
51783;DHT22;37845;53.196;5.638;2023-04-25T17:54:31;8.80;99.90
51783;DHT22;37845;53.196;5.638;2023-04-25T17:56:57;8.30;99.90
51783;DHT22;37845;53.196;5.638;2023-04-25T17:59:23;8.20;99.90
51783;DHT22;37845;53.196;5.638;2023-04-25T18:01:49;8.10;99.90
51783;DHT22;37845;53.196;5.638;2023-04-25T18:04:18;8.20;99.90
51783;DHT22;37845;53.196;5.638;2023-04-25T18:06:51;8.40;99.90
51783;DHT22;37845;53.196;5.638;2023-04-25T18:09:17;8.20;99.90
51783;DHT22;37845;53.196;5.638;2023-04-25T18:11:48;8.00;99.90
51783;DHT22;37845;53.196;5.638;2023-04-25T18:14:18;9.10;99.90
51783;DHT22;37845;53.196;5.638;2023-04-25T18:16:50;8.20;99.90
51783;DHT22;37845;53.196;5.638;2023-04-25T18:19:19;8.10;99.90
51783;DHT22;37845;53.196;5.638;2023-04-25T18:21:52;8.10;99.90
51783;DHT22;37845;53.196;5.638;2023-04-25T18:24:19;8.10;99.90
51783;DHT22;37845;53.196;5.638;2023-04-25T18:26:46;8.00;99.90
51783;DHT22;37845;53.196;5.638;2023-04-25T18:29:16;8.00;99.90
51783;DHT22;37845;53.196;5.638;2023-04-25T18:31:54;7.90;99.90
51783;DHT22;37845;53.196;5.638;2023-04-25T18:34:20;8.50;99.90
51783;DHT22;37845;53.196;5.638;2023-04-25T18:36:49;7.70;99.90
51783;DHT22;37845;53.196;5.638;2023-04-25T18:39:17;7.70;99.90
51783;DHT22;37845;53.196;5.638;2023-04-25T18:41:42;7.70;99.90
51783;DHT22;37845;53.196;5.638;2023-04-25T18:44:11;6.90;99.90
51783;DHT22;37845;53.196;5.638;2023-04-25T18:46:37;8.10;99.90
51783;DHT22;37845;53.196;5.638;2023-04-25T18:49:05;7.70;99.90
51783;DHT22;37845;53.196;5.638;2023-04-25T18:51:39;7.70;99.90
51783;DHT22;37845;53.196;5.638;2023-04-25T18:54:06;7.70;99.90
51783;DHT22;37845;53.196;5.638;2023-04-25T18:56:34;7.70;99.90
51783;DHT22;37845;53.196;5.638;2023-04-25T18:59:00;7.60;99.90
51783;DHT22;37845;53.196;5.638;2023-04-25T19:01:26;7.20;99.90
51783;DHT22;37845;53.196;5.638;2023-04-25T19:03:52;7.50;99.90
51783;DHT22;37845;53.196;5.638;2023-04-25T19:06:22;7.50;99.90
51783;DHT22;37845;53.196;5.638;2023-04-25T19:08:52;7.50;99.90